Time;durP1;ratioP1;P1;durP2;ratioP2;P2;SDS_P1;SDS_P2;PMS_P1;PMS_P2;Temp;Humidity;BMP_temperature;BMP_pressure;BME280_temperature;BME280_humidity;BME280_pressure;Samples;Min_cycle;Max_cycle;Signal;HPM_P1;HPM_P2
2021/12/30 00:00:15;;;;;;;9.73;5.07;;;;;;;8.79;91.16;96526.06;10292514;28;97105;-72
2021/12/30 00:05:18;;;;;;;5.65;3.85;;;;;;;8.72;91.46;96517.97;10292422;28;96862;-72
2021/12/30 00:10:22;;;;;;;6.28;4.75;;;;;;;8.72;91.82;96523.19;10296051;28;96793;-72
2021/12/30 00:15:27;;;;;;;4.65;3.65;;;;;;;8.81;91.46;96525.94;10292988;28;96794;-72
2021/12/30 00:20:30;;;;;;;3.27;2.27;;;;;;;8.88;91.81;96516.66;10297588;28;97005;-72
2021/12/30 00:25:39;;;;;;;3.67;2.67;;;;;;;9.01;91.58;96519.88;10295742;28;97144;-72
2021/12/30 00:30:44;;;;;;;5.05;3.75;;;;;;;9.10;91.42;96526.09;10295499;28;99649;-73
2021/12/30 00:35:48;;;;;;;4.93;3.10;;;;;;;9.15;91.08;96512.66;10278820;28;97161;-72
2021/12/30 00:40:51;;;;;;;7.57;5.18;;;;;;;8.99;91.46;96513.16;10295405;28;97659;-72
2021/12/30 00:45:55;;;;;;;5.45;3.45;;;;;;;8.98;91.52;96527.94;10296473;28;96959;-72
2021/12/30 00:50:58;;;;;;;5.60;3.87;;;;;;;9.09;91.67;96530.47;10293215;28;96940;-72
2021/12/30 00:56:02;;;;;;;6.43;4.18;;;;;;;9.13;91.36;96530.22;10296229;28;96994;-72
2021/12/30 01:01:06;;;;;;;7.40;4.75;;;;;;;9.03;91.24;96536.19;10293834;28;96702;-72
2021/12/30 01:06:09;;;;;;;;;;;;;;;8.99;91.45;96532.22;10291548;28;96978;-72
2021/12/30 01:11:13;;;;;;;7.53;4.63;;;;;;;8.99;91.21;96534.81;10298244;28;97096;-72
2021/12/30 01:16:18;;;;;;;7.15;4.78;;;;;;;8.98;91.26;96546.19;10294398;28;97598;-72
2021/12/30 01:21:23;;;;;;;6.45;4.07;;;;;;;8.87;91.49;96547.09;10290846;28;96910;-72
2021/12/30 01:26:26;;;;;;;7.80;4.75;;;;;;;8.86;91.63;96540.25;10294766;28;96663;-72
2021/12/30 01:31:31;;;;;;;9.80;5.85;;;;;;;8.87;91.24;96560.13;10293581;28;97018;-72
2021/12/30 01:36:54;;;;;;;87.97;12.05;;;;;;;8.62;91.15;96568.34;10294698;28;99819;-72
2021/12/30 01:41:58;;;;;;;8.50;5.13;;;;;;;8.60;91.41;96570.25;10291280;28;97193;-72
2021/12/30 01:47:05;;;;;;;7.43;6.07;;;;;;;8.67;91.31;96566.19;10295227;28;96982;-72
2021/12/30 01:52:08;;;;;;;7.80;3.92;;;;;;;8.67;91.66;96561.81;10292417;28;96889;-72
2021/12/30 01:57:10;;;;;;;5.45;3.28;;;;;;;8.68;91.07;96563.44;10288975;28;97572;-72
2021/12/30 02:02:15;;;;;;;4.70;3.42;;;;;;;8.71;91.08;96562.38;10287766;28;96888;-72
2021/12/30 02:07:18;;;;;;;4.88;3.78;;;;;;;8.71;91.11;96563.19;10292987;28;96883;-72
2021/12/30 02:12:21;;;;;;;5.47;4.00;;;;;;;8.71;91.04;96568.41;10289669;28;96705;-72
2021/12/30 02:17:26;;;;;;;4.20;3.10;;;;;;;8.70;91.18;96564.13;10295006;28;97171;-72
2021/12/30 02:22:30;;;;;;;8.57;4.22;;;;;;;8.70;90.86;96577.16;10292189;28;97025;-72
2021/12/30 02:27:33;;;;;;;5.78;3.92;;;;;;;8.72;90.98;96570.06;10292087;28;96868;-72
2021/12/30 02:32:35;;;;;;;7.13;4.10;;;;;;;8.52;91.57;96574.31;10292978;28;96756;-72
2021/12/30 02:37:40;;;;;;;4.90;3.30;;;;;;;8.56;91.57;96569.69;10294008;28;97896;-72
2021/12/30 02:42:42;;;;;;;6.17;3.77;;;;;;;8.64;91.40;96575.09;10298507;28;96777;-72
2021/12/30 02:47:45;;;;;;;6.47;4.13;;;;;;;8.75;91.53;96579.41;10280793;28;96702;-72
2021/12/30 02:52:50;;;;;;;6.72;3.90;;;;;;;8.77;91.49;96581.88;10299684;28;96814;-72
2021/12/30 02:57:52;;;;;;;6.27;3.97;;;;;;;8.79;90.91;96586.00;10298863;28;96856;-72
2021/12/30 03:02:56;;;;;;;5.25;3.85;;;;;;;8.68;90.98;96586.06;10299537;28;96900;-72
2021/12/30 03:08:00;;;;;;;99.03;9.90;;;;;;;8.40;91.32;96580.53;10299896;28;97231;-72
2021/12/30 03:13:06;;;;;;;5.80;3.40;;;;;;;8.29;91.86;96586.63;10298354;28;97093;-72
2021/12/30 03:18:09;;;;;;;12.85;4.32;;;;;;;8.21;92.03;96581.22;10295362;28;97255;-72
2021/12/30 03:23:13;;;;;;;3.17;2.20;;;;;;;8.32;91.69;96582.94;10301212;28;96901;-72
2021/12/30 03:28:16;;;;;;;4.03;2.50;;;;;;;8.40;91.90;96592.75;10297728;28;97653;-72
2021/12/30 03:33:20;;;;;;;3.13;2.15;;;;;;;8.43;91.67;96587.25;10293296;28;96716;-73
2021/12/30 03:38:24;;;;;;;4.28;2.50;;;;;;;8.51;91.39;96592.66;10299827;28;96708;-72
2021/12/30 03:43:27;;;;;;;4.37;3.43;;;;;;;8.57;91.75;96597.38;10297496;28;96941;-72
2021/12/30 03:48:33;;;;;;;7.53;4.55;;;;;;;8.52;91.45;96612.56;10293973;28;96874;-72
2021/12/30 03:53:41;;;;;;;5.55;4.03;;;;;;;8.38;91.67;96605.03;10297015;28;96663;-72
2021/12/30 03:58:45;;;;;;;10.55;4.95;;;;;;;8.30;91.71;96611.69;10299091;28;98066;-72
2021/12/30 04:03:49;;;;;;;5.00;3.95;;;;;;;8.37;91.67;96600.78;10296373;28;96862;-72
2021/12/30 04:08:53;;;;;;;5.73;4.10;;;;;;;8.45;91.12;96603.59;10295813;28;96892;-72
2021/12/30 04:13:56;;;;;;;5.80;4.25;;;;;;;8.49;91.32;96600.59;10297465;28;96976;-72
2021/12/30 04:18:59;;;;;;;10.10;6.55;;;;;;;8.37;91.62;96596.41;10296204;28;96798;-72
2021/12/30 04:24:04;;;;;;;7.28;5.70;;;;;;;8.39;91.79;96604.09;10292174;28;96863;-72
2021/12/30 04:29:07;;;;;;;4.93;4.00;;;;;;;8.30;91.57;96616.06;10299102;28;96872;-72
2021/12/30 04:34:10;;;;;;;4.35;3.33;;;;;;;8.22;91.91;96628.88;10295249;28;96920;-72
2021/12/30 04:39:14;;;;;;;4.93;3.50;;;;;;;8.31;91.97;96628.16;10291349;28;96925;-72
2021/12/30 04:44:17;;;;;;;6.95;3.13;;;;;;;8.34;92.14;96627.88;10298574;28;96747;-72
2021/12/30 04:49:19;;;;;;;5.75;3.78;;;;;;;8.46;91.75;96636.47;10294940;28;96866;-72
2021/12/30 04:54:24;;;;;;;8.38;3.38;;;;;;;8.35;91.42;96638.19;10292091;28;97305;-72
2021/12/30 04:59:27;;;;;;;6.23;2.37;;;;;;;8.39;91.97;96628.34;10297466;28;96851;-72
2021/12/30 05:04:30;;;;;;;3.97;2.63;;;;;;;8.52;91.06;96631.59;10294367;28;97018;-72
2021/12/30 05:09:34;;;;;;;3.75;2.50;;;;;;;8.57;91.10;96638.19;10293674;28;96896;-72
2021/12/30 05:14:37;;;;;;;4.57;2.90;;;;;;;8.60;91.62;96653.59;10293620;28;97999;-72
2021/12/30 05:19:40;;;;;;;3.75;3.03;;;;;;;8.65;91.18;96651.44;10294145;28;96818;-72
2021/12/30 05:24:44;;;;;;;4.43;3.70;;;;;;;8.64;90.90;96655.00;10294649;28;96844;-72
2021/12/30 05:29:47;;;;;;;2.97;2.27;;;;;;;8.59;90.65;96668.41;10275561;28;96902;-72
2021/12/30 05:34:50;;;;;;;165.27;13.70;;;;;;;8.39;91.48;96664.78;10293844;28;96850;-72
2021/12/30 05:39:54;;;;;;;5.07;3.53;;;;;;;8.33;91.09;96662.69;10293820;28;96960;-72
2021/12/30 05:44:57;;;;;;;7.23;4.80;;;;;;;8.20;91.41;96681.03;10291657;28;96776;-72
2021/12/30 05:50:00;;;;;;;8.77;5.30;;;;;;;8.28;91.57;96670.84;10296087;28;96760;-72
2021/12/30 05:55:05;;;;;;;12.05;7.07;;;;;;;8.17;91.41;96668.31;10293029;28;96712;-72
2021/12/30 06:00:11;;;;;;;9.13;6.05;;;;;;;8.22;91.38;96676.56;10289821;28;97103;-72
2021/12/30 06:05:15;;;;;;;8.80;6.03;;;;;;;8.28;91.48;96681.28;10287182;28;96932;-72
2021/12/30 06:10:20;;;;;;;16.60;7.18;;;;;;;8.15;91.82;96691.84;10293300;28;97164;-72
2021/12/30 06:15:22;;;;;;;8.07;4.23;;;;;;;8.20;91.83;96691.47;10288699;28;98766;-72
2021/12/30 06:20:27;;;;;;;5.50;2.63;;;;;;;8.32;91.78;96692.25;10294715;28;96665;-72
2021/12/30 06:25:31;;;;;;;;;;;;;;;8.29;90.95;96687.28;10292824;28;97007;-72
2021/12/30 06:30:34;;;;;;;5.90;3.40;;;;;;;8.28;91.56;96688.25;10290864;28;96935;-72
2021/12/30 06:35:37;;;;;;;5.72;3.45;;;;;;;8.29;91.21;96703.75;10292955;28;96887;-72
2021/12/30 06:40:41;;;;;;;6.75;4.15;;;;;;;8.29;91.22;96711.56;10293127;28;96812;-72
2021/12/30 06:45:44;;;;;;;6.30;3.60;;;;;;;8.21;91.52;96718.34;10292164;28;96749;-72
2021/12/30 06:50:52;;;;;;;6.85;4.30;;;;;;;8.24;91.73;96715.47;10274733;28;96837;-72
2021/12/30 06:55:56;;;;;;;5.22;3.88;;;;;;;8.30;91.56;96710.59;10292137;28;96986;-72
2021/12/30 07:00:59;;;;;;;9.63;4.90;;;;;;;8.21;91.52;96721.75;10291426;28;97201;-72
2021/12/30 07:06:03;;;;;;;4.55;3.25;;;;;;;8.13;91.68;96724.13;10289075;28;97088;-72
2021/12/30 07:11:07;;;;;;;4.18;3.20;;;;;;;8.17;91.04;96720.34;10294216;28;96688;-72
2021/12/30 07:16:10;;;;;;;5.90;4.20;;;;;;;8.17;91.23;96715.16;10291244;28;97401;-72
2021/12/30 07:21:13;;;;;;;7.63;5.85;;;;;;;8.13;91.83;96724.97;10287639;28;97040;-72
2021/12/30 07:26:18;;;;;;;7.13;5.20;;;;;;;8.20;91.55;96733.09;10297951;28;97577;-73
2021/12/30 07:31:20;;;;;;;16.03;5.77;;;;;;;8.12;91.51;96733.72;10298365;28;97086;-72
2021/12/30 07:36:23;;;;;;;11.43;6.18;;;;;;;8.12;91.22;96738.91;10294791;28;96776;-72
2021/12/30 07:41:27;;;;;;;10.45;6.88;;;;;;;8.15;91.97;96735.22;10298571;28;96759;-72
2021/12/30 07:46:31;;;;;;;10.05;6.57;;;;;;;8.16;91.52;96739.50;10296702;28;97037;-72
2021/12/30 07:51:34;;;;;;;9.98;6.72;;;;;;;8.24;91.94;96747.53;10295821;28;99660;-72
2021/12/30 07:56:38;;;;;;;8.80;6.35;;;;;;;8.17;91.88;96748.97;10296592;28;96902;-72
2021/12/30 08:01:41;;;;;;;8.17;5.83;;;;;;;8.27;92.12;96768.09;10297037;28;96811;-72
2021/12/30 08:06:44;;;;;;;12.10;7.47;;;;;;;8.22;92.00;96759.84;10297155;28;96715;-72
2021/12/30 08:11:48;;;;;;;12.35;7.43;;;;;;;8.21;92.01;96752.97;10278568;28;97186;-72
2021/12/30 08:16:51;;;;;;;11.13;6.67;;;;;;;8.22;91.76;96757.25;10297035;28;96893;-72
2021/12/30 08:21:54;;;;;;;10.23;6.78;;;;;;;8.31;92.05;96756.53;10297483;28;97120;-72
2021/12/30 08:26:59;;;;;;;10.73;6.00;;;;;;;8.39;92.13;96752.47;10293600;28;96721;-72
2021/12/30 08:32:02;;;;;;;6.75;5.10;;;;;;;8.50;92.29;96768.09;10297944;28;100247;-72
2021/12/30 08:37:05;;;;;;;6.95;5.68;;;;;;;8.61;92.25;96757.63;10294171;28;96848;-72
2021/12/30 08:42:20;;;;;;;7.80;6.38;;;;;;;8.77;91.90;96759.00;10291599;28;96952;-72
2021/12/30 08:47:25;;;;;;;7.35;5.32;;;;;;;8.90;92.07;96755.28;10292025;28;96743;-72
2021/12/30 08:52:29;;;;;;;;;;;;;;;9.07;91.90;96769.56;10295571;28;96852;-72
2021/12/30 08:57:37;;;;;;;6.72;5.63;;;;;;;9.21;91.54;96770.19;10293138;28;101827;-72
2021/12/30 09:02:41;;;;;;;9.73;6.97;;;;;;;9.29;91.20;96767.78;10294664;28;96781;-72
2021/12/30 09:07:44;;;;;;;9.87;8.00;;;;;;;9.40;91.53;96780.78;10294306;28;96783;-73
2021/12/30 09:12:49;;;;;;;8.90;7.70;;;;;;;9.54;91.39;96786.63;10295376;28;96668;-73
2021/12/30 09:17:54;;;;;;;10.57;7.57;;;;;;;9.53;91.38;96787.63;10292624;28;96941;-72
2021/12/30 09:22:57;;;;;;;9.57;7.40;;;;;;;9.55;91.79;96796.13;10295006;28;96988;-73
2021/12/30 09:28:01;;;;;;;14.20;10.10;;;;;;;9.69;91.69;96798.41;10292826;28;97157;-72
2021/12/30 09:33:05;;;;;;;19.13;11.60;;;;;;;9.78;91.36;96813.28;10291047;28;96942;-72
2021/12/30 09:38:08;;;;;;;30.42;18.60;;;;;;;9.84;91.39;96815.38;10297065;28;96660;-73
2021/12/30 09:43:12;;;;;;;32.92;19.88;;;;;;;9.87;90.93;96824.75;10293555;28;96916;-73
2021/12/30 09:48:16;;;;;;;10.05;8.13;;;;;;;9.91;91.22;96828.75;10288705;28;96954;-72
2021/12/30 09:53:21;;;;;;;17.10;11.85;;;;;;;10.01;90.77;96823.59;10296209;28;96768;-73
2021/12/30 09:58:25;;;;;;;15.02;9.82;;;;;;;10.02;90.56;96833.88;10293542;28;96876;-72
2021/12/30 10:03:28;;;;;;;9.83;7.03;;;;;;;10.14;90.71;96829.41;10291833;28;96947;-73
2021/12/30 10:08:36;;;;;;;14.07;10.35;;;;;;;10.17;90.66;96834.38;10293873;28;96932;-73
2021/12/30 10:13:50;;;;;;;7.65;5.93;;;;;;;10.08;90.65;96835.16;10293406;28;96833;-73
2021/12/30 10:18:56;;;;;;;9.37;6.00;;;;;;;10.17;90.66;96838.78;10292402;28;97384;-72
2021/12/30 10:24:02;;;;;;;6.45;5.57;;;;;;;10.26;90.76;96831.94;10290094;28;97460;-73
2021/12/30 10:29:06;;;;;;;;;;;;;;;10.40;90.54;96835.00;10295534;28;96783;-73
2021/12/30 10:34:09;;;;;;;7.28;5.65;;;;;;;10.53;90.28;96839.19;10293096;28;96869;-73
2021/12/30 10:39:18;;;;;;;7.78;5.55;;;;;;;10.58;89.46;96837.84;10288186;28;102102;-73
2021/12/30 10:44:23;;;;;;;6.40;5.47;;;;;;;10.55;89.07;96825.03;10288028;28;97969;-73
2021/12/30 10:49:28;;;;;;;6.20;5.17;;;;;;;10.51;89.01;96822.81;10291326;28;96740;-73
2021/12/30 10:54:34;;;;;;;6.97;5.60;;;;;;;10.46;89.18;96815.41;10290525;28;96900;-73
2021/12/30 10:59:43;;;;;;;7.07;5.85;;;;;;;10.47;88.99;96808.38;10295318;28;97148;-73
2021/12/30 11:04:49;;;;;;;7.03;6.20;;;;;;;10.48;89.25;96810.00;10298844;28;96809;-73
2021/12/30 11:09:54;;;;;;;7.68;6.88;;;;;;;10.55;89.48;96801.53;10297670;28;96906;-73
2021/12/30 11:15:05;;;;;;;10.43;6.55;;;;;;;10.64;89.88;96799.06;10296796;28;96912;-73
2021/12/30 11:20:10;;;;;;;9.27;6.85;;;;;;;10.83;90.28;96799.09;10300854;28;97201;-73
2021/12/30 11:25:17;;;;;;;9.13;7.60;;;;;;;11.04;89.48;96803.41;10297824;28;96958;-73
2021/12/30 11:30:21;;;;;;;6.07;5.07;;;;;;;11.12;90.05;96793.91;10294463;28;97891;-73
2021/12/30 11:35:26;;;;;;;5.10;4.10;;;;;;;11.22;90.47;96791.28;10299629;28;97024;-73
2021/12/30 11:40:32;;;;;;;4.20;3.80;;;;;;;11.44;90.31;96781.53;10298347;28;96992;-73
2021/12/30 11:45:38;;;;;;;5.10;3.63;;;;;;;11.61;89.91;96775.56;10297084;28;97172;-73
2021/12/30 11:50:41;;;;;;;5.18;4.15;;;;;;;11.77;89.73;96767.13;10296768;28;96903;-73
2021/12/30 11:55:56;;;;;;;5.35;4.47;;;;;;;12.05;89.64;96760.13;10296428;28;96826;-73
2021/12/30 12:01:03;;;;;;;4.90;4.07;;;;;;;12.24;88.29;96753.16;10295901;28;99467;-73
2021/12/30 12:06:32;;;;;;;4.85;3.92;;;;;;;12.37;87.75;96753.66;10292434;28;96988;-73
2021/12/30 12:11:45;;;;;;;6.22;4.05;;;;;;;12.54;87.94;96743.34;10294037;28;97873;-73
2021/12/30 12:16:56;;;;;;;3.83;2.90;;;;;;;12.69;87.84;96747.94;10297155;28;96768;-73
2021/12/30 12:22:00;;;;;;;2.55;1.88;;;;;;;12.78;86.95;96751.47;10296342;28;96883;-74
2021/12/30 12:27:07;;;;;;;6.13;4.00;;;;;;;12.73;87.11;96755.50;10293598;28;96853;-74
2021/12/30 12:32:14;;;;;;;4.80;3.97;;;;;;;12.76;87.74;96752.59;10298602;28;97114;-74
2021/12/30 12:37:56;;;;;;;4.40;3.20;;;;;;;12.78;87.31;96761.13;10296567;28;96978;-74
2021/12/30 12:43:25;;;;;;;3.42;2.30;;;;;;;12.92;86.92;96757.19;10292413;28;96812;-73
2021/12/30 12:48:39;;;;;;;3.45;3.05;;;;;;;12.86;88.23;96753.34;10292741;28;98358;-74
2021/12/30 12:53:48;;;;;;;3.07;2.57;;;;;;;12.96;86.51;96753.28;10294023;28;96672;-73
2021/12/30 12:58:53;;;;;;;3.22;2.78;;;;;;;12.85;87.04;96749.88;10297435;28;97046;-74
2021/12/30 13:04:00;;;;;;;3.38;2.67;;;;;;;12.77;87.06;96744.59;10294194;28;97032;-74
2021/12/30 13:09:07;;;;;;;2.75;2.03;;;;;;;12.76;87.09;96752.59;10292329;28;96791;-73
2021/12/30 13:14:16;;;;;;;3.55;2.53;;;;;;;12.82;87.82;96737.09;10297587;28;96864;-74
2021/12/30 13:19:24;;;;;;;2.70;1.80;;;;;;;12.97;87.12;96744.47;10294365;28;97015;-74
2021/12/30 13:24:46;;;;;;;3.83;3.10;;;;;;;13.04;87.65;96740.25;10290471;28;96776;-73
2021/12/30 13:29:51;;;;;;;3.78;3.08;;;;;;;13.10;87.91;96731.81;10277804;28;96896;-74
2021/12/30 13:35:03;;;;;;;4.18;2.60;;;;;;;13.22;86.58;96725.34;10296913;28;96899;-73
2021/12/30 13:40:15;;;;;;;4.95;2.80;;;;;;;13.28;87.52;96723.91;10293793;28;96770;-73
2021/12/30 13:45:24;;;;;;;2.95;2.35;;;;;;;13.28;87.25;96723.09;10289203;28;97228;-73
2021/12/30 13:50:29;;;;;;;2.55;2.35;;;;;;;13.30;86.82;96735.06;10295249;28;96786;-73
2021/12/30 13:55:36;;;;;;;2.95;2.25;;;;;;;13.25;87.28;96732.06;10293370;28;97265;-73
2021/12/30 14:00:42;;;;;;;3.42;1.98;;;;;;;13.22;86.30;96738.47;10292103;28;96783;-73
2021/12/30 14:05:48;;;;;;;3.90;2.00;;;;;;;13.13;86.65;96744.59;10291914;28;96845;-73
2021/12/30 14:10:55;;;;;;;2.78;1.67;;;;;;;13.05;86.16;96747.16;10293207;28;96851;-73
2021/12/30 14:15:57;;;;;;;2.50;2.00;;;;;;;13.03;85.43;96760.44;10292728;28;96951;-74
2021/12/30 14:21:03;;;;;;;1.90;1.70;;;;;;;12.81;85.20;96753.78;10291139;28;97171;-73
2021/12/30 14:26:19;;;;;;;2.78;2.20;;;;;;;12.67;85.03;96755.13;10295168;28;96990;-73
2021/12/30 14:31:25;;;;;;;2.63;2.10;;;;;;;12.54;84.40;96759.88;10291839;28;96704;-74
2021/12/30 14:36:29;;;;;;;3.75;2.22;;;;;;;12.49;85.10;96752.50;10295778;28;96860;-74
2021/12/30 14:41:35;;;;;;;2.70;2.07;;;;;;;12.44;84.69;96757.34;10300556;28;96993;-74
2021/12/30 14:46:40;;;;;;;3.13;1.88;;;;;;;12.42;84.37;96761.06;10298956;28;96989;-74
2021/12/30 14:51:45;;;;;;;3.85;2.08;;;;;;;12.43;84.93;96755.69;10299429;28;96731;-73
2021/12/30 14:56:49;;;;;;;3.72;2.60;;;;;;;12.43;84.81;96755.69;10280374;28;96880;-74
2021/12/30 15:01:53;;;;;;;3.20;2.30;;;;;;;12.46;84.58;96747.53;10298843;28;96879;-74
2021/12/30 15:06:58;;;;;;;2.58;2.03;;;;;;;12.49;85.23;96747.25;10298379;28;96943;-74
2021/12/30 15:12:01;;;;;;;3.13;2.10;;;;;;;12.52;84.43;96745.31;10296848;28;97029;-74
2021/12/30 15:17:04;;;;;;;2.75;2.10;;;;;;;12.49;84.46;96752.50;10301245;28;98461;-73
2021/12/30 15:22:08;;;;;;;2.65;2.08;;;;;;;12.49;84.88;96751.66;10298080;28;96697;-74
2021/12/30 15:27:14;;;;;;;3.80;1.90;;;;;;;12.45;84.45;96766.03;10292973;28;97235;-74
2021/12/30 15:32:19;;;;;;;3.00;1.88;;;;;;;12.31;84.38;96762.09;10293088;28;96969;-74
2021/12/30 15:37:23;;;;;;;;;;;;;;;12.17;84.04;96770.44;10297807;28;97048;-74
2021/12/30 15:42:26;;;;;;;2.40;1.85;;;;;;;12.00;84.44;96767.59;10294957;28;96831;-74
2021/12/30 15:47:30;;;;;;;3.70;2.50;;;;;;;11.87;84.85;96781.00;10297968;28;96893;-74
2021/12/30 15:52:34;;;;;;;3.65;2.35;;;;;;;11.74;85.42;96780.50;10296950;28;96821;-74
2021/12/30 15:57:37;;;;;;;3.70;2.70;;;;;;;11.63;85.15;96786.72;10295851;28;97070;-74
2021/12/30 16:02:41;;;;;;;3.70;2.50;;;;;;;11.46;85.17;96793.50;10297705;28;96872;-74
2021/12/30 16:07:46;;;;;;;6.40;5.50;;;;;;;11.13;86.08;96800.75;10299153;28;96828;-73
2021/12/30 16:12:49;;;;;;;7.70;4.80;;;;;;;10.79;86.46;96792.47;10296284;28;96919;-74
2021/12/30 16:17:53;;;;;;;9.57;5.70;;;;;;;10.57;86.60;96797.00;10293461;28;96934;-73
2021/12/30 16:22:57;;;;;;;12.13;7.70;;;;;;;10.48;86.40;96799.56;10297315;28;99752;-73
2021/12/30 16:28:01;;;;;;;4.80;2.67;;;;;;;10.29;86.41;96805.53;10296350;28;96954;-73
2021/12/30 16:33:03;;;;;;;3.53;1.98;;;;;;;10.12;86.36;96800.00;10293591;28;96829;-73
2021/12/30 16:38:08;;;;;;;2.70;1.95;;;;;;;9.92;86.64;96791.25;10298168;28;97232;-73
2021/12/30 16:43:13;;;;;;;3.95;2.30;;;;;;;9.82;86.78;96793.00;10295747;28;99902;-73
2021/12/30 16:48:18;;;;;;;2.40;1.80;;;;;;;9.53;87.06;96793.66;10291472;28;96910;-73
2021/12/30 16:53:22;;;;;;;;;;;;;;;9.33;86.95;96797.03;10298928;28;96787;-73
2021/12/30 16:58:27;;;;;;;4.43;3.05;;;;;;;9.17;87.23;96792.25;10295055;28;97054;-73
2021/12/30 17:03:30;;;;;;;2.17;1.33;;;;;;;9.15;87.33;96794.16;10292687;28;96871;-73
2021/12/30 17:08:35;;;;;;;2.75;1.13;;;;;;;9.06;86.56;96801.78;10294698;28;96878;-73
2021/12/30 17:13:38;;;;;;;6.43;4.43;;;;;;;8.92;87.08;96804.69;10294773;28;97327;-73
2021/12/30 17:18:40;;;;;;;2.60;2.03;;;;;;;8.71;87.35;96818.47;10294128;28;96706;-73
2021/12/30 17:23:49;;;;;;;4.57;2.75;;;;;;;8.52;87.38;96823.47;10276623;28;96733;-74
2021/12/30 17:28:52;;;;;;;4.00;2.33;;;;;;;8.49;87.25;96818.50;10296665;28;96845;-73
2021/12/30 17:33:56;;;;;;;3.63;2.03;;;;;;;8.24;87.32;96824.78;10294341;28;97624;-73
2021/12/30 17:39:00;;;;;;;1.73;1.27;;;;;;;8.10;87.98;96820.63;10291565;28;96761;-73
2021/12/30 17:44:04;;;;;;;1.90;1.50;;;;;;;8.13;88.00;96820.41;10296310;28;96781;-73
2021/12/30 17:49:07;;;;;;;1.42;1.08;;;;;;;8.18;88.06;96820.06;10293945;28;96972;-73
2021/12/30 17:54:12;;;;;;;2.03;0.90;;;;;;;8.10;87.30;96818.88;10289369;28;96845;-74
2021/12/30 17:59:21;;;;;;;4.10;1.77;;;;;;;7.96;87.95;96827.75;10288330;28;97234;-73
2021/12/30 18:04:24;;;;;;;3.22;2.50;;;;;;;7.92;88.17;96828.91;10292938;28;96803;-74
2021/12/30 18:09:29;;;;;;;4.80;3.20;;;;;;;8.06;88.14;96824.44;10289617;28;96792;-73
2021/12/30 18:14:31;;;;;;;5.77;4.30;;;;;;;8.24;88.20;96843.00;10294607;28;96972;-73
2021/12/30 18:19:34;;;;;;;5.43;4.32;;;;;;;8.37;88.10;96848.09;10292626;28;97054;-73
2021/12/30 18:24:39;;;;;;;8.73;5.78;;;;;;;8.43;88.39;96858.03;10291755;28;97296;-73
2021/12/30 18:29:42;;;;;;;7.13;5.70;;;;;;;8.37;88.33;96858.53;10292714;28;97124;-73
2021/12/30 18:34:46;;;;;;;8.10;4.72;;;;;;;8.35;88.32;96843.84;10295043;28;96833;-73
2021/12/30 18:39:50;;;;;;;6.68;4.95;;;;;;;8.14;88.38;96853.31;10292491;28;97318;-73
2021/12/30 18:44:53;;;;;;;6.47;4.18;;;;;;;8.11;88.79;96850.94;10290055;28;97795;-73
2021/12/30 18:49:56;;;;;;;7.65;4.45;;;;;;;8.15;88.98;96852.34;10292106;28;96901;-73
2021/12/30 18:55:00;;;;;;;7.13;4.93;;;;;;;8.30;88.76;96858.97;10292258;28;97444;-73
2021/12/30 19:00:20;;;;;;;6.07;4.63;;;;;;;8.39;89.15;96854.84;10287936;28;97148;-73
2021/12/30 19:05:24;;;;;;;6.85;4.80;;;;;;;8.48;88.98;96859.34;10294215;28;96688;-73
2021/12/30 19:10:29;;;;;;;8.68;7.13;;;;;;;8.56;88.75;96860.53;10291476;28;96711;-73
2021/12/30 19:15:33;;;;;;;8.57;6.90;;;;;;;8.66;88.92;96867.50;10289595;28;96863;-73
2021/12/30 19:20:37;;;;;;;8.77;6.53;;;;;;;8.71;88.79;96870.56;10295102;28;96896;-73
2021/12/30 19:25:41;;;;;;;10.57;8.13;;;;;;;8.80;88.72;96873.41;10299669;28;96824;-73
2021/12/30 19:30:45;;;;;;;9.93;7.67;;;;;;;8.85;88.63;96873.88;10298518;28;96699;-73
2021/12/30 19:35:48;;;;;;;9.93;7.32;;;;;;;8.89;88.61;96875.28;10280377;28;97670;-73
2021/12/30 19:40:53;;;;;;;8.90;7.25;;;;;;;8.94;89.13;96875.72;10296964;28;96975;-73
2021/12/30 19:45:56;;;;;;;10.18;8.02;;;;;;;8.95;88.61;96880.00;10297491;28;96905;-73
2021/12/30 19:50:59;;;;;;;12.52;9.30;;;;;;;8.99;88.22;96875.38;10295729;28;96761;-73
2021/12/30 19:56:06;;;;;;;11.25;8.13;;;;;;;8.97;88.10;96870.28;10299262;28;96797;-73
2021/12/30 20:01:09;;;;;;;7.75;6.28;;;;;;;8.92;88.40;96872.44;10296483;28;97480;-73
2021/12/30 20:06:12;;;;;;;14.80;9.85;;;;;;;8.93;88.39;96863.63;10293240;28;96889;-73
2021/12/30 20:11:17;;;;;;;11.00;8.23;;;;;;;8.98;88.41;96868.50;10292052;28;97764;-73
2021/12/30 20:16:20;;;;;;;9.90;7.97;;;;;;;9.00;87.65;96864.84;10297098;28;96844;-73
2021/12/30 20:21:22;;;;;;;11.05;8.02;;;;;;;8.98;87.79;96866.72;10293026;28;96905;-73
2021/12/30 20:26:30;;;;;;;14.73;11.45;;;;;;;8.89;87.90;96873.47;10298692;28;96715;-73
2021/12/30 20:31:33;;;;;;;12.57;9.90;;;;;;;8.90;88.39;96879.53;10294266;28;96986;-73
2021/12/30 20:36:37;;;;;;;32.05;19.45;;;;;;;8.90;88.35;96884.75;10294832;28;96922;-73
2021/12/30 20:41:42;;;;;;;50.25;27.15;;;;;;;8.90;88.43;96895.19;10295970;28;96868;-73
2021/12/30 20:46:45;;;;;;;;;;;;;;;8.92;88.13;96891.50;10295286;28;96812;-73
2021/12/30 20:51:48;;;;;;;29.58;19.08;;;;;;;9.01;87.94;96896.94;10295388;28;96741;-73
2021/12/30 20:56:53;;;;;;;26.17;17.80;;;;;;;9.08;88.04;96904.13;10293487;28;96899;-73
2021/12/30 21:01:56;;;;;;;22.88;16.33;;;;;;;9.14;87.66;96896.75;10296047;28;96897;-73
2021/12/30 21:07:00;;;;;;;23.23;14.82;;;;;;;9.18;87.79;96901.63;10296611;28;96757;-73
2021/12/30 21:12:06;;;;;;;23.95;16.50;;;;;;;9.24;87.54;96900.28;10291412;28;96907;-73
2021/12/30 21:17:09;;;;;;;21.40;16.10;;;;;;;9.24;87.77;96897.69;10297199;28;96735;-73
2021/12/30 21:22:15;;;;;;;20.83;14.07;;;;;;;9.26;87.26;96901.00;10293853;28;96876;-73
2021/12/30 21:27:19;;;;;;;35.65;21.33;;;;;;;9.17;87.62;96907.78;10290119;28;96928;-73
2021/12/30 21:32:24;;;;;;;32.08;20.55;;;;;;;9.21;88.04;96910.97;10296496;28;96739;-73
2021/12/30 21:37:27;;;;;;;52.28;29.63;;;;;;;9.14;87.64;96912.41;10294450;28;96724;-73
2021/12/30 21:42:31;;;;;;;23.88;16.23;;;;;;;9.14;87.81;96912.41;10290658;28;96886;-73
2021/12/30 21:47:35;;;;;;;20.93;13.87;;;;;;;9.13;87.96;96922.00;10294716;28;96870;-73
2021/12/30 21:52:38;;;;;;;14.57;9.90;;;;;;;9.16;87.91;96916.56;10293402;28;97055;-73
2021/12/30 21:57:44;;;;;;;12.65;9.65;;;;;;;9.19;87.35;96924.13;10293669;28;97136;-73
2021/12/30 22:02:49;;;;;;;10.00;6.75;;;;;;;9.20;87.37;96922.34;10276222;28;96820;-73
2021/12/30 22:07:53;;;;;;;10.70;6.57;;;;;;;9.22;87.10;96925.66;10294270;28;96758;-73
2021/12/30 22:12:57;;;;;;;7.60;4.95;;;;;;;9.24;87.62;96923.75;10292138;28;97153;-73
2021/12/30 22:18:00;;;;;;;8.53;5.07;;;;;;;9.27;87.51;96923.53;10291179;28;98007;-73
2021/12/30 22:23:06;;;;;;;8.38;6.05;;;;;;;9.20;87.66;96922.34;10294886;28;97015;-73
2021/12/30 22:28:12;;;;;;;9.30;7.47;;;;;;;9.17;87.91;96925.19;10291794;28;96734;-73
2021/12/30 22:33:16;;;;;;;11.35;8.07;;;;;;;9.21;87.58;96924.00;10288712;28;99661;-73
2021/12/30 22:38:29;;;;;;;10.35;7.35;;;;;;;9.10;87.72;96917.84;10289156;28;96736;-73
2021/12/30 22:43:37;;;;;;;9.98;6.72;;;;;;;9.14;88.14;96920.22;10292397;28;97005;-73
2021/12/30 22:48:42;;;;;;;;;;;;;;;9.14;88.04;96925.44;10293022;28;96863;-73
2021/12/30 22:53:45;;;;;;;11.30;8.15;;;;;;;9.19;87.52;96918.09;10292214;28;96862;-73
2021/12/30 22:58:50;;;;;;;12.80;9.57;;;;;;;9.23;87.72;96916.91;10299552;28;96886;-73
2021/12/30 23:03:54;;;;;;;15.10;10.07;;;;;;;9.11;87.95;96929.13;10297741;28;96879;-73
2021/12/30 23:08:57;;;;;;;17.58;10.77;;;;;;;9.03;88.35;96916.69;10297041;28;97198;-73
2021/12/30 23:14:01;;;;;;;9.88;7.95;;;;;;;9.15;88.09;96916.69;10300624;28;96704;-73
2021/12/30 23:19:06;;;;;;;;;;;;;;;9.13;88.07;96915.97;10299343;28;96844;-73
2021/12/30 23:24:11;;;;;;;8.23;5.30;;;;;;;9.13;88.22;96918.59;10294739;28;96755;-73
2021/12/30 23:29:16;;;;;;;11.35;7.13;;;;;;;9.11;88.10;96913.50;10302005;28;96908;-73
2021/12/30 23:34:19;;;;;;;13.23;7.27;;;;;;;9.02;88.42;96914.19;10297934;28;96904;-73
2021/12/30 23:39:22;;;;;;;13.20;7.05;;;;;;;9.05;88.65;96901.75;10294940;28;96731;-73
2021/12/30 23:44:27;;;;;;;14.88;6.78;;;;;;;9.12;88.12;96909.91;10300143;28;96986;-73
2021/12/30 23:49:30;;;;;;;17.67;7.37;;;;;;;9.13;88.70;96905.56;10298084;28;97048;-73